Time;durP1;ratioP1;P1;durP2;ratioP2;P2;SDS_P1;SDS_P2;PMS_P1;PMS_P2;Temp;Humidity;BMP_temperature;BMP_pressure;BME280_temperature;BME280_humidity;BME280_pressure;Samples;Min_cycle;Max_cycle;Signal;HPM_P1;HPM_P2
2021/12/03 00:02:22;;;;;;;;;;;;;;;4.92;82.68;100861.94;5009628;28;19925;-88
2021/12/03 00:04:49;;;;;;;;;;;;;;;4.91;82.51;100860.22;5025717;28;19979;-87
2021/12/03 00:07:15;;;;;;;;;;;;;;;4.87;82.52;100866.59;5025769;28;19972;-88
2021/12/03 00:09:43;;;;;;;;;;;;;;;4.83;83.13;100857.94;5025723;28;19968;-87
2021/12/03 00:12:10;;;;;;;;;;;;;;;4.81;82.82;100866.88;5026477;28;19926;-88
2021/12/03 00:14:37;;;;;;;;;;;;;;;4.78;82.88;100874.94;5026356;28;20032;-87
2021/12/03 00:17:04;;;;;;;;;;;;;;;4.79;83.12;100874.03;5024265;28;19977;-88
2021/12/03 00:19:33;;;;;;;;;;;;;;;4.81;82.83;100866.88;5025434;28;20008;-87
2021/12/03 00:21:59;;;;;;;;;;;;;;;4.81;83.22;100875.66;5024573;28;19941;-88
2021/12/03 00:24:26;;;;;;;;;;;;;;;4.77;83.35;100870.59;5025052;28;20373;-88
2021/12/03 00:26:52;;;;;;;;;;;;;;;4.77;83.00;100871.47;5022466;28;19972;-88
2021/12/03 00:29:19;;;;;;;;;;;;;;;4.77;83.49;100868.81;5025915;28;19993;-90
2021/12/03 00:31:45;;;;;;;;;;;;;;;4.74;83.45;100868.94;5023979;28;19929;-88
2021/12/03 00:34:12;;;;;;;;;;;;;;;4.74;83.77;100876.03;5022434;28;19925;-88
2021/12/03 00:36:40;;;;;;;;;;;;;;;4.77;83.81;100865.31;5025900;28;19929;-88
2021/12/03 00:39:08;;;;;;;;;;;;;;;4.81;83.78;100869.53;5024735;28;19965;-87
2021/12/03 00:41:45;;;;;;;;;;;;;;;4.82;83.78;100868.56;5028974;28;19929;-89
2021/12/03 00:44:14;;;;;;;;;;;;;;;4.85;84.12;100868.44;5029804;28;19926;-88
2021/12/03 00:46:41;;;;;;;;;;;;;;;4.86;83.85;100876.31;5026223;28;19945;-88
2021/12/03 00:49:07;;;;;;;;;;;;;;;4.87;83.16;100875.38;5030104;28;19930;-88
2021/12/03 00:51:34;;;;;;;;;;;;;;;4.91;83.62;100876.09;5029008;28;19925;-88
2021/12/03 00:54:03;;;;;;;;;;;;;;;4.91;83.38;100867.28;5030702;28;19940;-88
2021/12/03 00:56:30;;;;;;;;;;;;;;;4.91;83.55;100875.22;5029402;28;20377;-88
2021/12/03 00:58:56;;;;;;;;;;;;;;;4.91;83.51;100865.50;5027241;28;19933;-89
2021/12/03 01:01:23;;;;;;;;;;;;;;;4.90;83.30;100860.28;5028986;28;19957;-89
2021/12/03 01:03:50;;;;;;;;;;;;;;;4.90;83.57;100865.56;5028962;28;19925;-88
2021/12/03 01:06:17;;;;;;;;;;;;;;;4.90;84.19;100866.44;5030370;28;19930;-88
2021/12/03 01:08:44;;;;;;;;;;;;;;;4.92;83.45;100863.75;5026639;28;19929;-87
2021/12/03 01:11:12;;;;;;;;;;;;;;;4.93;83.36;100858.34;5028857;28;19973;-88
2021/12/03 01:13:40;;;;;;;;;;;;;;;4.95;83.66;100855.63;5029555;28;19980;-87
2021/12/03 01:16:07;;;;;;;;;;;;;;;4.93;83.84;100850.41;5028602;28;19929;-89
2021/12/03 01:18:35;;;;;;;;;;;;;;;4.93;83.67;100842.47;5023458;28;19975;-88
2021/12/03 01:21:02;;;;;;;;;;;;;;;4.93;83.56;100842.47;5023925;28;19993;-88
2021/12/03 01:23:29;;;;;;;;;;;;;;;4.95;83.98;100848.53;5029786;28;19953;-87
2021/12/03 01:25:57;;;;;;;;;;;;;;;4.95;83.84;100843.25;5028019;28;19925;-88
2021/12/03 01:28:26;;;;;;;;;;;;;;;4.95;83.92;100852.97;5027830;28;19936;-88
2021/12/03 01:30:53;;;;;;;;;;;;;;;4.91;84.33;100854.06;5026852;28;20498;-89
2021/12/03 01:33:19;;;;;;;;;;;;;;;4.93;84.36;100857.50;5024976;28;19968;-88
2021/12/03 01:35:46;;;;;;;;;;;;;;;4.95;84.59;100868.84;5028979;28;19932;-89
2021/12/03 01:38:18;;;;;;;;;;;;;;;4.95;84.10;100866.22;5027796;28;19933;-88
2021/12/03 01:40:45;;;;;;;;;;;;;;;4.95;83.98;100863.56;5026928;28;19929;-88
2021/12/03 01:43:15;;;;;;;;;;;;;;;4.95;84.32;100872.34;5026603;28;20001;-87
2021/12/03 01:45:44;;;;;;;;;;;;;;;4.95;84.09;100872.34;5025146;28;19964;-88
2021/12/03 01:48:10;;;;;;;;;;;;;;;4.96;84.41;100870.59;5015833;28;19933;-88
2021/12/03 01:50:39;;;;;;;;;;;;;;;4.96;84.43;100858.22;5026891;28;19937;-88
2021/12/03 01:53:05;;;;;;;;;;;;;;;5.00;83.93;100858.91;5028620;28;19936;-89
2021/12/03 01:55:33;;;;;;;;;;;;;;;4.99;84.68;100844.84;5026950;28;19952;-88
2021/12/03 01:58:00;;;;;;;;;;;;;;;5.01;84.42;100852.69;5029263;28;19985;-87
2021/12/03 02:00:29;;;;;;;;;;;;;;;5.00;84.35;100850.97;5026181;28;19968;-88
2021/12/03 02:02:57;;;;;;;;;;;;;;;5.01;84.57;100842.09;5027097;28;19969;-88
2021/12/03 02:05:24;;;;;;;;;;;;;;;5.03;85.02;100827.88;5028217;28;19964;-88
2021/12/03 02:07:52;;;;;;;;;;;;;;;5.05;84.98;100819.84;5009911;28;19964;-88
2021/12/03 02:10:20;;;;;;;;;;;;;;;5.05;84.76;100822.50;5029390;28;19926;-88
2021/12/03 02:12:49;;;;;;;;;;;;;;;5.06;84.54;100827.69;5029153;28;19960;-88
2021/12/03 02:15:16;;;;;;;;;;;;;;;5.08;85.08;100814.41;5029780;28;20524;-89
2021/12/03 02:17:45;;;;;;;;;;;;;;;5.10;84.59;100827.56;5028277;28;19944;-88
2021/12/03 02:20:14;;;;;;;;;;;;;;;5.10;84.25;100832.84;5029778;28;19925;-88
2021/12/03 02:22:43;;;;;;;;;;;;;;;5.11;84.62;100839.88;5029386;28;19930;-88
2021/12/03 02:25:11;;;;;;;;;;;;;;;5.13;84.60;100840.66;5028144;28;19956;-88
2021/12/03 02:27:38;;;;;;;;;;;;;;;5.14;84.46;100835.28;5027347;28;19933;-88
2021/12/03 02:30:07;;;;;;;;;;;;;;;5.16;84.26;100843.13;5029078;28;19956;-88
2021/12/03 02:32:34;;;;;;;;;;;;;;;5.13;83.96;100841.50;5028793;28;19934;-89
2021/12/03 02:35:01;;;;;;;;;;;;;;;5.12;83.89;100838.94;5029031;28;19933;-88
2021/12/03 02:37:27;;;;;;;;;;;;;;;5.12;84.09;100842.44;5028422;28;19956;-89
2021/12/03 02:39:55;;;;;;;;;;;;;;;5.13;83.70;100838.00;5028134;28;19964;-89
2021/12/03 02:42:22;;;;;;;;;;;;;;;5.12;83.81;100833.63;5028772;28;19933;-88
2021/12/03 02:44:49;;;;;;;;;;;;;;;5.11;83.71;100827.50;5023945;28;19926;-88
2021/12/03 02:47:18;;;;;;;;;;;;;;;5.10;83.51;100831.06;5025187;28;19972;-89
2021/12/03 02:49:45;;;;;;;;;;;;;;;5.11;83.47;100824.84;5024889;28;20282;-88
2021/12/03 02:52:11;;;;;;;;;;;;;;;5.13;83.43;100822.13;5027737;28;19940;-88
2021/12/03 02:54:38;;;;;;;;;;;;;;;5.13;83.68;100824.78;5029324;28;19943;-88
2021/12/03 02:57:07;;;;;;;;;;;;;;;5.12;83.57;100820.41;5029280;28;19933;-88
2021/12/03 02:59:34;;;;;;;;;;;;;;;5.11;83.69;100822.19;5024484;28;19922;-88
2021/12/03 03:02:03;;;;;;;;;;;;;;;5.13;83.72;100827.41;5027393;28;19953;-88
2021/12/03 03:04:30;;;;;;;;;;;;;;;5.12;83.26;100829.19;5026485;28;20301;-88
2021/12/03 03:06:56;;;;;;;;;;;;;;;5.13;83.40;100827.41;5030797;28;19952;-89
2021/12/03 03:09:24;;;;;;;;;;;;;;;5.15;83.25;100828.19;5029370;28;19933;-89
2021/12/03 03:11:53;;;;;;;;;;;;;;;5.14;83.35;100822.06;5025643;28;19926;-89
2021/12/03 03:14:21;;;;;;;;;;;;;;;5.12;83.55;100815.94;5023775;28;19980;-88
2021/12/03 03:16:48;;;;;;;;;;;;;;;5.09;83.12;100828.50;5030169;28;19996;-88
2021/12/03 03:19:17;;;;;;;;;;;;;;;5.11;83.51;100830.13;5028019;28;19972;-88
2021/12/03 03:21:44;;;;;;;;;;;;;;;5.10;83.87;100825.75;5026781;28;19933;-88
2021/12/03 03:24:13;;;;;;;;;;;;;;;5.11;83.81;100824.00;5027100;28;19949;-89
2021/12/03 03:26:41;;;;;;;;;;;;;;;5.13;84.64;100815.03;5059056;23;20041;-90
2021/12/03 03:29:10;;;;;;;;;;;;;;;5.16;83.84;100808.72;5019243;28;19929;-90
2021/12/03 03:31:44;;;;;;;;;;;;;;;5.17;83.92;100803.34;4998111;28;19929;-90
2021/12/03 03:34:11;;;;;;;;;;;;;;;5.21;83.73;100804.06;5017327;28;19971;-91
2021/12/03 03:36:39;;;;;;;;;;;;;;;5.22;83.68;100797.84;4974421;28;20484;-91
2021/12/03 03:39:06;;;;;;;;;;;;;;;5.24;84.07;100795.97;4973476;28;19933;-90
2021/12/03 03:41:38;;;;;;;;;;;;;;;5.25;83.86;100795.03;5001703;28;20027;-90
2021/12/03 03:44:10;;;;;;;;;;;;;;;5.25;84.11;100793.25;5004000;28;19961;-92
2021/12/03 03:46:38;;;;;;;;;;;;;;;5.26;84.05;100791.47;5003334;28;19979;-90
2021/12/03 03:49:15;;;;;;;;;;;;;;;5.29;83.98;100785.13;5003602;28;20677;-91
2021/12/03 03:51:45;;;;;;;;;;;;;;;5.31;84.00;100794.69;4985891;28;19930;-90
2021/12/03 03:54:19;;;;;;;;;;;;;;;5.32;84.11;100777.06;5001387;28;20396;-90
2021/12/03 03:56:51;;;;;;;;;;;;;;;5.31;84.18;100785.91;4977130;28;20300;-91
2021/12/03 03:59:23;;;;;;;;;;;;;;;5.32;84.69;100775.25;5004067;28;20052;-90
2021/12/03 04:01:57;;;;;;;;;;;;;;;5.35;84.42;100768.94;5000237;28;20028;-91
2021/12/03 04:04:28;;;;;;;;;;;;;;;5.36;84.74;100773.31;5001370;28;20404;-90
2021/12/03 04:06:56;;;;;;;;;;;;;;;5.39;85.09;100768.72;5001858;28;19951;-90
2021/12/03 04:09:24;;;;;;;;;;;;;;;5.43;84.97;100764.97;5001234;28;19929;-90
2021/12/03 04:11:53;;;;;;;;;;;;;;;5.45;84.59;100764.88;4999810;28;20032;-90
2021/12/03 04:14:20;;;;;;;;;;;;;;;5.46;84.74;100762.16;4985653;28;19979;-90
2021/12/03 04:16:48;;;;;;;;;;;;;;;5.47;84.64;100760.38;4981440;28;19929;-90
2021/12/03 04:19:15;;;;;;;;;;;;;;;5.46;84.63;100764.81;4986063;28;19993;-90
2021/12/03 04:21:44;;;;;;;;;;;;;;;5.45;84.45;100764.88;4999882;28;20219;-90
2021/12/03 04:24:11;;;;;;;;;;;;;;;5.39;84.95;100773.16;5002285;28;20048;-90
2021/12/03 04:26:38;;;;;;;;;;;;;;;5.40;84.64;100773.06;5001304;28;19937;-90
2021/12/03 04:29:13;;;;;;;;;;;;;;;5.43;84.93;100761.47;4999906;28;19933;-90
2021/12/03 04:31:41;;;;;;;;;;;;;;;5.45;84.77;100765.75;4999680;28;20533;-89
2021/12/03 04:34:07;;;;;;;;;;;;;;;5.45;84.64;100764.88;5003672;28;19925;-90
2021/12/03 04:36:39;;;;;;;;;;;;;;;5.41;84.88;100763.34;4999333;28;19952;-89
2021/12/03 04:39:09;;;;;;;;;;;;;;;5.43;84.83;100758.81;5003436;28;19937;-90
2021/12/03 04:41:37;;;;;;;;;;;;;;;5.44;84.76;100763.16;4983130;28;20153;-90
2021/12/03 04:44:03;;;;;;;;;;;;;;;5.42;84.55;100757.94;5000953;28;20408;-90
2021/12/03 04:46:38;;;;;;;;;;;;;;;5.42;85.20;100751.78;4984904;28;19933;-90
2021/12/03 04:51:46;;;;;;;;;;;;;;;5.47;85.28;100742.69;5000741;28;20011;-90
2021/12/03 04:54:17;;;;;;;;;;;;;;;5.50;85.05;100749.63;5002758;28;20287;-90
2021/12/03 04:56:47;;;;;;;;;;;;;;;5.50;84.72;100754.03;5001517;28;19957;-90
2021/12/03 04:59:15;;;;;;;;;;;;;;;5.46;85.23;100745.41;4983513;28;19933;-90
2021/12/03 05:01:53;;;;;;;;;;;;;;;5.46;85.36;100738.31;5004133;28;19936;-90
2021/12/03 05:04:21;;;;;;;;;;;;;;;5.50;85.38;100731.09;5005645;28;19956;-89
2021/12/03 05:07:04;;;;;;;;;;;;;;;5.47;85.41;100734.72;5019117;28;19922;-90
2021/12/03 05:09:33;;;;;;;;;;;;;;;5.48;84.99;100738.22;4987483;28;20041;-89
2021/12/03 05:12:01;;;;;;;;;;;;;;;5.53;85.40;100735.34;5020214;28;19933;-90
2021/12/03 05:14:28;;;;;;;;;;;;;;;5.54;85.26;100729.09;5007184;28;20024;-90
2021/12/03 05:16:56;;;;;;;;;;;;;;;5.52;84.74;100736.28;5003949;28;20443;-89
2021/12/03 05:19:29;;;;;;;;;;;;;;;5.48;85.14;100732.94;5001012;28;20008;-90
2021/12/03 05:21:56;;;;;;;;;;;;;;;5.50;85.01;100728.44;5000732;28;19961;-90
2021/12/03 05:24:24;;;;;;;;;;;;;;;5.55;85.36;100739.63;4985363;28;20476;-90
2021/12/03 05:26:56;;;;;;;;;;;;;;;5.59;85.12;100727.06;5002447;28;19933;-90
2021/12/03 05:29:27;;;;;;;;;;;;;;;5.59;84.99;100724.41;4994518;28;19930;-90
2021/12/03 05:31:56;;;;;;;;;;;;;;;5.60;85.00;100728.78;5003682;28;19929;-90
2021/12/03 05:34:29;;;;;;;;;;;;;;;5.59;84.60;100745.63;5006296;28;19952;-90
2021/12/03 05:36:59;;;;;;;;;;;;;;;5.56;84.71;100736.06;5003816;28;19926;-90
2021/12/03 05:39:27;;;;;;;;;;;;;;;5.51;84.89;100740.72;5006925;28;19952;-90
2021/12/03 05:42:01;;;;;;;;;;;;;;;5.50;84.94;100732.84;5004914;28;19973;-90
2021/12/03 05:44:30;;;;;;;;;;;;;;;5.54;84.50;100731.75;5006730;28;20444;-90
2021/12/03 05:46:58;;;;;;;;;;;;;;;5.53;84.42;100725.59;5004311;28;19925;-90
2021/12/03 05:49:28;;;;;;;;;;;;;;;5.53;84.30;100712.34;4987404;28;19941;-90
2021/12/03 05:52:02;;;;;;;;;;;;;;;5.54;84.44;100714.09;5003966;28;19929;-90
2021/12/03 05:54:29;;;;;;;;;;;;;;;5.54;84.30;100711.44;5006699;28;19929;-89
2021/12/03 05:56:59;;;;;;;;;;;;;;;5.56;84.16;100706.91;5004759;28;20281;-90
2021/12/03 05:59:26;;;;;;;;;;;;;;;5.58;84.34;100706.84;5001276;28;20054;-90
2021/12/03 06:01:53;;;;;;;;;;;;;;;5.52;83.82;100702.72;5002844;28;19934;-90
2021/12/03 06:04:21;;;;;;;;;;;;;;;5.54;83.94;100708.78;5005512;28;20389;-90
2021/12/03 06:09:28;;;;;;;;;;;;;;;5.57;83.65;100721.00;5005764;28;19914;-90
2021/12/03 06:12:02;;;;;;;;;;;;;;;5.55;83.38;100721.06;5005630;28;20012;-90
2021/12/03 06:19:51;;;;;;;;;;;;;;;5.59;83.50;100721.78;5015887;28;19933;-92
2021/12/03 06:22:19;;;;;;;;;;;;;;;5.58;83.29;100725.38;5017475;28;19926;-92
2021/12/03 06:24:47;;;;;;;;;;;;;;;5.56;83.08;100733.41;5014967;28;19984;-92
2021/12/03 06:30:31;;;;;;;;;;;;;;;5.46;82.33;100724.22;5020549;28;19929;-92
2021/12/03 06:32:59;;;;;;;;;;;;;;;5.49;82.69;100720.56;5017532;28;19964;-92
2021/12/03 06:35:27;;;;;;;;;;;;;;;5.47;82.30;100717.97;5017059;28;19935;-91
2021/12/03 06:40:43;;;;;;;;;;;;;;;5.51;82.84;100719.53;5013551;28;19933;-90
2021/12/03 06:51:25;;;;;;;;;;;;;;;5.50;82.11;100709.88;5018394;28;19913;-92
2021/12/03 06:59:19;;;;;;;;;;;;;;;5.41;81.84;100687.38;5007723;28;19932;-92
2021/12/03 07:04:31;;;;;;;;;;;;;;;5.41;81.25;100692.69;5013509;28;19941;-92
2021/12/03 07:09:41;;;;;;;;;;;;;;;5.34;80.45;100703.69;5030267;28;19975;-93
2021/12/03 07:12:15;;;;;;;;;;;;;;;5.34;80.98;100708.97;5379930;23;20250;-91
2021/12/03 07:17:32;;;;;;;;;;;;;;;5.23;80.23;100706.88;5029709;28;19926;-94
2021/12/03 07:22:43;;;;;;;;;;;;;;;5.26;80.74;100712.88;5034846;28;19925;-94
2021/12/03 07:33:23;;;;;;;;;;;;;;;5.16;79.73;100694.88;5027260;28;19933;-94
2021/12/03 07:36:08;;;;;;;;;;;;;;;5.14;79.89;100688.81;5031373;28;19934;-94
2021/12/03 07:38:44;;;;;;;;;;;;;;;5.10;79.46;100688.09;5029312;28;20024;-93
2021/12/03 07:41:11;;;;;;;;;;;;;;;5.08;79.73;100684.69;5028119;28;19925;-93
2021/12/03 07:46:21;;;;;;;;;;;;;;;5.04;79.42;100691.94;5017092;28;19926;-92
2021/12/03 07:48:49;;;;;;;;;;;;;;;5.07;79.62;100683.84;5010148;28;20374;-92
2021/12/03 07:51:19;;;;;;;;;;;;;;;5.05;79.67;100676.94;5019140;28;19981;-91
2021/12/03 08:05:06;;;;;;;;;;;;;;;5.08;79.70;100684.69;5031466;28;19933;-92
2021/12/03 08:07:36;;;;;;;;;;;;;;;5.09;79.76;100675.81;5022618;28;19941;-92
2021/12/03 08:10:21;;;;;;;;;;;;;;;5.06;79.49;100675.97;5018735;28;19952;-92
2021/12/03 08:19:06;;;;;;;;;;;;;;;5.12;80.18;100646.53;5014224;28;19933;-92
2021/12/03 08:30:10;;;;;;;;;;;;;;;5.07;79.70;100635.34;5018339;28;20043;-92
2021/12/03 08:46:36;;;;;;;;;;;;;;;5.16;78.80;100626.94;5013410;28;20565;-92
2021/12/03 08:49:11;;;;;;;;;;;;;;;5.17;79.34;100627.78;5016413;28;19925;-92
2021/12/03 08:51:49;;;;;;;;;;;;;;;5.22;79.63;100633.69;5011605;28;19926;-92
2021/12/03 08:59:52;;;;;;;;;;;;;;;5.22;79.03;100626.59;5014579;28;19926;-91
2021/12/03 09:05:00;;;;;;;;;;;;;;;5.16;78.66;100605.75;5017829;28;19916;-92
2021/12/03 09:10:22;;;;;;;;;;;;;;;5.19;79.11;100608.22;5019841;28;20397;-92
2021/12/03 09:13:08;;;;;;;;;;;;;;;5.23;79.21;100608.91;5022009;28;19949;-93
2021/12/03 09:15:55;;;;;;;;;;;;;;;5.21;79.27;100606.34;5024995;28;20350;-94
2021/12/03 09:21:20;;;;;;;;;;;;;;;5.26;79.35;100583.13;5016408;28;20366;-93
2021/12/03 09:26:37;;;;;;;;;;;;;;;5.23;78.90;100590.38;5016198;28;19918;-93
2021/12/03 09:32:14;;;;;;;;;;;;;;;5.18;78.70;100595.94;5027446;28;19929;-92
2021/12/03 09:43:53;;;;;;;;;;;;;;;5.14;78.70;100569.69;5022331;28;19946;-92
2021/12/03 09:49:37;;;;;;;;;;;;;;;5.12;79.75;100555.69;5022145;28;19936;-92
2021/12/03 09:52:17;;;;;;;;;;;;;;;5.07;79.44;100551.50;5017717;28;19991;-92
2021/12/03 09:57:33;;;;;;;;;;;;;;;5.11;80.11;100564.56;5016917;28;19921;-91
2021/12/03 10:17:40;;;;;;;;;;;;;;;5.07;82.33;100513.59;5018426;28;20342;-92
2021/12/03 10:20:13;;;;;;;;;;;;;;;5.05;82.01;100516.31;5022776;28;19933;-92
2021/12/03 10:34:05;;;;;;;;;;;;;;;5.19;83.05;100491.72;5013653;28;19966;-92
2021/12/03 10:39:38;;;;;;;;;;;;;;;5.24;82.33;100462.38;4999847;28;20060;-91
2021/12/03 10:42:13;;;;;;;;;;;;;;;5.32;82.72;100459.28;5012758;28;19935;-92
2021/12/03 10:45:06;;;;;;;;;;;;;;;5.40;82.82;100465.00;5015487;28;19935;-92
2021/12/03 10:47:53;;;;;;;;;;;;;;;5.40;82.18;100471.13;5012446;28;20051;-92
2021/12/03 14:41:57;;;;;;;;;;;;;;;6.03;86.37;100183.94;5003063;28;19971;-91
2021/12/03 14:44:30;;;;;;;;;;;;;;;6.05;87.04;100199.75;5012152;28;20441;-92
2021/12/03 14:47:31;;;;;;;;;;;;;;;6.04;86.71;100195.38;5013027;28;19992;-91
2021/12/03 14:52:57;;;;;;;;;;;;;;;6.06;87.18;100185.53;4982407;28;19929;-90
2021/12/03 14:55:25;;;;;;;;;;;;;;;6.11;87.03;100183.44;5011406;28;19929;-91
2021/12/03 14:58:00;;;;;;;;;;;;;;;6.15;86.90;100190.25;5011564;28;19933;-91
2021/12/03 15:00:31;;;;;;;;;;;;;;;6.13;86.79;100172.75;5011225;28;19935;-91
2021/12/03 15:03:23;;;;;;;;;;;;;;;6.12;87.29;100174.56;5010645;28;19936;-91
2021/12/03 15:08:35;;;;;;;;;;;;;;;6.10;87.24;100160.50;5007643;28;19940;-89
2021/12/03 15:14:28;;;;;;;;;;;;;;;6.05;87.55;100170.59;5012367;28;19932;-91
2021/12/03 15:22:42;;;;;;;;;;;;;;;6.11;87.55;100164.03;5009248;28;20453;-90
2021/12/03 17:14:46;;;;;;;;;;;;;;;6.20;88.01;100041.47;911399;23;20196;-92
2021/12/03 17:49:34;;;;;;;;;;;;;;;6.26;87.55;100027.81;5014212;28;19929;-91
2021/12/03 17:57:56;;;;;;;;;;;;;;;6.21;88.06;100022.78;5010195;28;19961;-91
2021/12/03 18:17:45;;;;;;;;;;;;;;;6.23;87.68;100026.22;5013441;28;19929;-89
2021/12/03 20:22:48;;;;;;;;;;;;;;;6.33;89.24;99954.84;5028002;28;19984;-85
2021/12/03 20:28:35;;;;;;;;;;;;;;;6.30;89.65;99952.38;5013689;28;19936;-84
2021/12/03 20:31:04;;;;;;;;;;;;;;;6.33;89.81;99952.19;5016153;28;19931;-84
2021/12/03 20:36:38;;;;;;;;;;;;;;;6.34;89.68;99953.03;5038774;28;19933;-83
2021/12/03 20:39:12;;;;;;;;;;;;;;;6.32;89.12;99947.00;5038087;28;19925;-84
2021/12/03 20:41:44;;;;;;;;;;;;;;;6.33;89.80;99952.19;5037570;28;19929;-83
2021/12/03 20:44:23;;;;;;;;;;;;;;;6.36;89.79;99930.75;5037936;28;20004;-84
2021/12/03 20:47:15;;;;;;;;;;;;;;;6.41;89.08;99935.75;5034667;28;19929;-84
2021/12/03 20:49:54;;;;;;;;;;;;;;;6.41;89.45;99915.38;5038835;28;19934;-84
2021/12/03 20:52:39;;;;;;;;;;;;;;;6.43;89.58;99928.53;5036574;28;19933;-83
2021/12/03 21:08:47;;;;;;;;;;;;;;;6.41;89.38;99910.06;5038671;28;20021;-83
2021/12/03 21:11:19;;;;;;;;;;;;;;;6.43;89.30;99916.09;5040150;28;19952;-84
2021/12/03 21:13:48;;;;;;;;;;;;;;;6.42;89.52;99911.78;5038453;28;20372;-83
2021/12/03 21:16:30;;;;;;;;;;;;;;;6.42;89.12;99917.09;5037689;28;19929;-83
2021/12/03 21:19:09;;;;;;;;;;;;;;;6.43;89.29;99902.84;5035361;28;19935;-84
2021/12/03 21:21:40;;;;;;;;;;;;;;;6.42;89.54;99903.81;5039003;28;20822;-85
2021/12/03 21:24:08;;;;;;;;;;;;;;;6.44;89.70;99903.69;5044786;28;19943;-84
2021/12/03 21:26:37;;;;;;;;;;;;;;;6.42;89.76;99901.16;5057845;28;19929;-84
2021/12/03 21:29:10;;;;;;;;;;;;;;;6.42;89.46;99905.59;5056639;28;20573;-83
2021/12/03 21:31:40;;;;;;;;;;;;;;;6.44;90.06;99903.69;5060173;28;19940;-83
2021/12/03 21:39:53;;;;;;;;;;;;;;;6.47;89.43;99907.94;5049646;28;19936;-83
2021/12/03 21:42:20;;;;;;;;;;;;;;;6.49;89.87;99904.22;5052800;28;19936;-83
2021/12/03 21:44:48;;;;;;;;;;;;;;;6.46;90.17;99898.28;5048639;28;20008;-84
2021/12/03 21:47:14;;;;;;;;;;;;;;;6.47;89.68;99908.78;5052322;28;19948;-83
2021/12/03 21:49:41;;;;;;;;;;;;;;;6.46;89.62;99893.84;5047103;28;20350;-83
2021/12/03 21:52:08;;;;;;;;;;;;;;;6.50;90.10;99891.81;5047405;28;20603;-83
2021/12/03 21:54:34;;;;;;;;;;;;;;;6.49;89.62;99890.97;5046236;28;19979;-84
2021/12/03 21:57:04;;;;;;;;;;;;;;;6.47;89.94;99897.34;5048764;28;20487;-84
2021/12/03 21:59:31;;;;;;;;;;;;;;;6.49;90.17;99900.72;5047627;28;19932;-84
2021/12/03 22:01:59;;;;;;;;;;;;;;;6.50;90.40;99894.44;5045669;28;19925;-83
2021/12/03 22:04:25;;;;;;;;;;;;;;;6.46;89.97;99885.91;5047198;28;20366;-83
2021/12/03 22:06:52;;;;;;;;;;;;;;;6.59;90.15;99893.81;5037517;28;19933;-83
2021/12/03 22:09:20;;;;;;;;;;;;;;;6.62;90.28;99886.50;5041536;28;19932;-83
2021/12/03 22:11:49;;;;;;;;;;;;;;;6.65;89.52;99879.25;5037665;28;19932;-83
2021/12/03 22:14:15;;;;;;;;;;;;;;;6.68;90.25;99881.72;5040485;28;19932;-83
2021/12/03 22:16:42;;;;;;;;;;;;;;;6.70;89.63;99877.13;5038673;28;19936;-83
2021/12/03 22:19:10;;;;;;;;;;;;;;;6.71;89.92;99869.06;5041273;28;19929;-83
2021/12/03 22:21:36;;;;;;;;;;;;;;;6.74;89.87;99868.88;5035107;28;19929;-83
2021/12/03 22:24:03;;;;;;;;;;;;;;;6.70;89.63;99863.88;5037559;28;20022;-83
2021/12/03 22:26:29;;;;;;;;;;;;;;;6.71;89.43;99858.47;5038045;28;19928;-83
2021/12/03 22:28:56;;;;;;;;;;;;;;;6.70;89.48;99859.41;5039136;28;20031;-83
2021/12/03 22:31:22;;;;;;;;;;;;;;;6.75;89.87;99851.13;5037731;28;19933;-83
2021/12/03 22:33:49;;;;;;;;;;;;;;;6.78;89.46;99845.59;5037517;28;21419;-83
2021/12/03 22:36:17;;;;;;;;;;;;;;;6.77;90.41;99844.75;5035279;28;20532;-83
2021/12/03 22:38:44;;;;;;;;;;;;;;;6.78;89.40;99837.63;5037954;28;20057;-83
2021/12/03 22:41:11;;;;;;;;;;;;;;;6.78;90.00;99848.22;5038158;28;19939;-83
2021/12/03 22:43:41;;;;;;;;;;;;;;;6.74;89.16;99842.31;5036652;28;20411;-83
2021/12/03 22:46:18;;;;;;;;;;;;;;;6.70;89.51;99832.88;5037984;28;19932;-83
2021/12/03 22:48:46;;;;;;;;;;;;;;;6.68;89.88;99842.75;5036264;28;19936;-83
2021/12/03 22:53:57;;;;;;;;;;;;;;;6.66;90.10;99817.28;5037834;28;19932;-83
2021/12/03 22:56:23;;;;;;;;;;;;;;;6.64;90.17;99828.00;5036876;28;19940;-83
2021/12/03 22:58:50;;;;;;;;;;;;;;;6.65;89.77;99823.53;5035942;28;20031;-83
2021/12/03 23:01:18;;;;;;;;;;;;;;;6.63;90.46;99818.38;5036501;28;20011;-83
2021/12/03 23:03:45;;;;;;;;;;;;;;;6.65;90.23;99816.47;5038904;28;21307;-82
2021/12/03 23:06:12;;;;;;;;;;;;;;;6.66;90.40;99812.00;5037377;28;20004;-82
2021/12/03 23:08:38;;;;;;;;;;;;;;;6.67;89.66;99816.31;5037148;28;19943;-83
2021/12/03 23:11:06;;;;;;;;;;;;;;;6.69;90.74;99804.66;5038729;28;20248;-83
2021/12/03 23:13:35;;;;;;;;;;;;;;;6.72;90.98;99804.41;5037362;28;20308;-83
2021/12/03 23:16:01;;;;;;;;;;;;;;;6.73;89.88;99795.50;5037064;28;20308;-83
2021/12/03 23:18:28;;;;;;;;;;;;;;;6.70;89.71;99793.06;5035999;28;19935;-83
2021/12/03 23:20:54;;;;;;;;;;;;;;;6.69;90.12;99794.03;5037412;28;19933;-83
2021/12/03 23:23:21;;;;;;;;;;;;;;;6.68;89.90;99795.00;5038170;28;19939;-83
2021/12/03 23:25:50;;;;;;;;;;;;;;;6.66;90.35;99783.63;5035450;28;19933;-83
2021/12/03 23:28:19;;;;;;;;;;;;;;;6.66;90.65;99788.09;5035312;28;19974;-83
2021/12/03 23:30:46;;;;;;;;;;;;;;;6.66;90.49;99794.25;5037310;28;19982;-83
2021/12/03 23:33:15;;;;;;;;;;;;;;;6.63;90.62;99792.69;5037967;28;19929;-83
2021/12/03 23:35:41;;;;;;;;;;;;;;;6.58;90.35;99783.38;5037497;28;19933;-83
2021/12/03 23:38:07;;;;;;;;;;;;;;;6.59;90.39;99783.25;5039124;28;19929;-83
2021/12/03 23:40:34;;;;;;;;;;;;;;;6.62;90.72;99784.81;5036774;28;19929;-83
2021/12/03 23:43:00;;;;;;;;;;;;;;;6.65;91.11;99775.78;5040447;28;19924;-83
2021/12/03 23:45:28;;;;;;;;;;;;;;;6.64;90.48;99774.94;5035720;28;19935;-85
2021/12/03 23:47:54;;;;;;;;;;;;;;;6.66;90.49;99778.34;5040866;28;19933;-83
2021/12/03 23:50:21;;;;;;;;;;;;;;;6.69;90.71;99770.16;5033881;28;19933;-81
2021/12/03 23:52:47;;;;;;;;;;;;;;;6.74;90.95;99769.81;5040104;28;19997;-81
2021/12/03 23:55:14;;;;;;;;;;;;;;;6.74;90.50;99768.03;5038183;28;19924;-81
2021/12/03 23:57:40;;;;;;;;;;;;;;;6.75;90.70;99767.06;5039104;28;19975;-80
